Time;durP1;ratioP1;P1;durP2;ratioP2;P2;SDS_P1;SDS_P2;PMS_P1;PMS_P2;Temp;Humidity;BMP_temperature;BMP_pressure;BME280_temperature;BME280_humidity;BME280_pressure;Samples;Min_cycle;Max_cycle;Signal;HPM_P1;HPM_P2
2022/09/11 00:00:35;;;;;;;2.80;1.20;;;;;;;17.87;63.88;99705.03;4925474;29;20236;-81
2022/09/11 00:03:01;;;;;;;1.60;1.07;;;;;;;17.87;64.16;99710.34;4941244;29;20233;-81
2022/09/11 00:05:26;;;;;;;3.20;1.00;;;;;;;17.87;64.00;99705.84;4924677;29;20521;-80
2022/09/11 00:07:52;;;;;;;1.63;1.17;;;;;;;17.88;64.12;99709.38;4939745;29;20658;-80
2022/09/11 00:10:18;;;;;;;1.30;1.20;;;;;;;17.88;64.11;99707.56;4941941;29;21021;-81
2022/09/11 00:12:43;;;;;;;2.40;1.00;;;;;;;17.85;63.99;99705.19;4941725;29;20971;-80
2022/09/11 00:15:09;;;;;;;2.83;1.27;;;;;;;17.86;63.95;99704.19;4940872;29;20209;-80
2022/09/11 00:17:35;;;;;;;3.50;1.40;;;;;;;17.86;64.04;99690.06;4940560;29;20802;-80
2022/09/11 00:20:01;;;;;;;1.07;0.90;;;;;;;17.83;64.02;99704.47;4939875;29;20897;-81
2022/09/11 00:22:26;;;;;;;1.37;1.13;;;;;;;17.84;64.10;99706.16;4940837;29;20467;-80
2022/09/11 00:24:53;;;;;;;1.03;0.93;;;;;;;17.83;64.15;99698.34;4942916;29;20492;-80
2022/09/11 00:27:19;;;;;;;1.00;0.90;;;;;;;17.82;63.98;99707.25;4943075;29;20213;-81
2022/09/11 00:29:45;;;;;;;1.47;1.00;;;;;;;17.79;63.96;99702.25;4944131;28;20463;-80
2022/09/11 00:32:11;;;;;;;1.50;0.97;;;;;;;17.78;64.06;99700.53;4906447;29;20780;-80
2022/09/11 00:34:38;;;;;;;2.60;1.00;;;;;;;17.77;64.05;99710.34;4940189;28;20307;-80
2022/09/11 00:37:04;;;;;;;4.30;1.70;;;;;;;17.79;64.16;99705.72;4947033;28;20455;-80
2022/09/11 00:39:29;;;;;;;1.13;1.03;;;;;;;17.81;64.03;99703.78;4967539;28;20470;-80
2022/09/11 00:41:55;;;;;;;2.50;1.40;;;;;;;17.82;64.12;99708.13;4951540;28;20840;-81
2022/09/11 00:44:24;;;;;;;2.87;1.37;;;;;;;17.86;64.20;99708.66;4964866;28;20237;-80
2022/09/11 00:46:53;;;;;;;1.93;1.13;;;;;;;17.86;64.03;99704.19;4944706;28;21141;-80
2022/09/11 00:49:41;;;;;;;3.40;1.17;;;;;;;17.84;63.91;99706.16;4950016;28;20961;-80
2022/09/11 00:52:25;;;;;;;1.80;1.53;;;;;;;17.83;63.94;99699.16;4962084;28;20475;-80
2022/09/11 00:54:59;;;;;;;1.30;1.00;;;;;;;17.83;64.01;99701.81;4950547;28;20474;-80
2022/09/11 00:57:29;;;;;;;3.03;1.47;;;;;;;17.80;64.00;99694.13;4963975;28;20848;-80
2022/09/11 00:59:57;;;;;;;4.03;1.20;;;;;;;17.81;64.11;99695.81;4947811;28;20464;-80
2022/09/11 01:02:28;;;;;;;1.93;1.20;;;;;;;17.81;64.14;99689.66;4946191;28;20472;-81
2022/09/11 01:04:55;;;;;;;1.77;1.67;;;;;;;17.78;64.33;99680.13;4948846;28;20484;-81
2022/09/11 01:07:23;;;;;;;1.90;1.27;;;;;;;17.77;64.41;99689.09;4944257;28;20470;-80
2022/09/11 01:09:50;;;;;;;1.67;1.10;;;;;;;17.75;64.25;99684.88;4953500;28;20472;-80
2022/09/11 01:12:32;;;;;;;1.30;1.17;;;;;;;17.73;64.30;99681.53;4950027;28;20461;-80
2022/09/11 01:15:15;;;;;;;2.23;1.53;;;;;;;17.70;64.49;99685.31;4950667;28;20497;-80
2022/09/11 01:18:14;;;;;;;3.07;1.40;;;;;;;17.67;64.68;99688.25;4948968;28;20911;-81
2022/09/11 01:20:52;;;;;;;2.53;1.33;;;;;;;17.66;64.57;99684.75;4946420;28;21034;-80
2022/09/11 01:23:23;;;;;;;1.87;1.20;;;;;;;17.64;64.77;99689.38;4963696;28;20486;-81
2022/09/11 01:26:06;;;;;;;3.27;1.20;;;;;;;17.61;64.71;99687.00;4951466;28;20514;-81
2022/09/11 01:28:38;;;;;;;2.47;1.37;;;;;;;17.59;64.98;99688.09;4946961;28;20459;-80
2022/09/11 01:31:10;;;;;;;1.30;1.07;;;;;;;17.59;64.95;99688.09;4944054;28;20463;-81
2022/09/11 01:33:48;;;;;;;2.92;1.80;;;;;;;17.62;65.41;99691.31;4967223;23;20530;-73
2022/09/11 01:36:25;;;;;;;1.77;1.30;;;;;;;17.61;65.28;99688.81;4922184;28;20204;-73
2022/09/11 01:38:55;;;;;;;1.55;1.45;;;;;;;17.65;65.23;99684.88;4930552;28;21140;-74
2022/09/11 01:41:47;;;;;;;1.63;1.10;;;;;;;17.65;65.18;99682.22;4940239;28;20877;-73
2022/09/11 01:44:26;;;;;;;4.63;1.50;;;;;;;17.64;65.21;99683.22;4943028;28;20479;-74
2022/09/11 01:46:52;;;;;;;1.83;1.53;;;;;;;17.63;65.39;99681.53;4933415;28;20528;-73
2022/09/11 01:49:30;;;;;;;3.17;1.27;;;;;;;17.63;65.15;99679.72;4935182;28;21245;-74
2022/09/11 01:52:01;;;;;;;1.47;1.10;;;;;;;17.63;65.15;99682.38;4936948;28;20979;-74
2022/09/11 01:54:32;;;;;;;2.60;1.53;;;;;;;17.65;65.16;99685.72;4938666;28;20472;-73
2022/09/11 01:57:05;;;;;;;2.57;1.20;;;;;;;17.65;65.35;99690.19;4930250;28;20453;-74
2022/09/11 01:59:38;;;;;;;1.20;1.10;;;;;;;17.63;65.50;99689.50;4955051;28;20463;-74
2022/09/11 02:02:09;;;;;;;1.90;1.37;;;;;;;17.63;65.58;99686.84;4955302;28;20569;-74
2022/09/11 02:04:44;;;;;;;2.80;1.40;;;;;;;17.66;65.70;99686.56;4954970;28;21216;-74
2022/09/11 02:07:20;;;;;;;2.17;1.43;;;;;;;17.64;65.81;99685.88;4955810;28;20728;-73
2022/09/11 02:10:00;;;;;;;1.93;1.20;;;;;;;17.61;65.69;99694.97;4933287;28;20819;-74
2022/09/11 02:12:38;;;;;;;1.33;1.17;;;;;;;17.60;65.83;99687.13;4951309;28;20460;-74
2022/09/11 02:15:04;;;;;;;2.10;1.50;;;;;;;17.59;65.40;99688.94;4965823;28;20470;-74
2022/09/11 02:17:52;;;;;;;1.27;1.17;;;;;;;17.59;65.74;99702.22;4947039;28;20491;-74
2022/09/11 02:20:24;;;;;;;1.33;1.23;;;;;;;17.59;65.64;99704.88;4938701;28;20229;-74
2022/09/11 02:22:51;;;;;;;1.40;1.30;;;;;;;17.58;65.74;99702.34;4939129;28;20467;-74
2022/09/11 02:25:16;;;;;;;1.83;1.40;;;;;;;17.59;65.90;99702.22;4961160;28;20249;-74
2022/09/11 02:27:43;;;;;;;2.07;1.50;;;;;;;17.60;65.87;99705.72;4957326;28;20461;-73
2022/09/11 02:30:09;;;;;;;2.70;1.20;;;;;;;17.61;65.85;99688.81;4968721;28;20526;-73
2022/09/11 02:32:41;;;;;;;1.25;1.13;;;;;;;17.63;65.75;99684.19;4964864;28;20278;-74
2022/09/11 02:35:09;;;;;;;2.83;1.33;;;;;;;17.63;65.60;99689.50;4948442;28;20248;-74
2022/09/11 02:37:58;;;;;;;3.08;1.45;;;;;;;17.61;65.77;99697.63;4943362;28;20529;-74
2022/09/11 02:40:40;;;;;;;1.40;1.20;;;;;;;17.59;66.00;99698.75;4954856;28;20208;-74
2022/09/11 02:43:25;;;;;;;1.50;1.30;;;;;;;17.54;66.05;99696.50;4939807;28;20892;-74
2022/09/11 02:46:30;;;;;;;1.40;1.20;;;;;;;17.49;66.14;99696.06;4934599;28;20484;-73
2022/09/11 02:49:09;;;;;;;1.20;0.90;;;;;;;17.46;66.38;99704.31;4944236;28;20980;-74
2022/09/11 02:51:48;;;;;;;4.43;1.48;;;;;;;17.46;66.44;99701.66;4944948;28;20209;-74
2022/09/11 02:54:40;;;;;;;2.60;1.50;;;;;;;17.44;66.38;99688.53;4959647;28;20718;-75
2022/09/11 02:57:19;;;;;;;2.67;1.33;;;;;;;17.42;66.51;99690.50;4943799;28;20418;-75
2022/09/11 02:59:53;;;;;;;2.73;1.40;;;;;;;17.38;66.68;99691.72;4930096;28;20466;-73
2022/09/11 03:02:19;;;;;;;1.60;1.10;;;;;;;17.38;66.65;99686.41;4953458;28;20497;-74
2022/09/11 03:04:47;;;;;;;6.25;1.27;;;;;;;17.37;66.58;99682.09;4957805;28;20240;-73
2022/09/11 03:07:13;;;;;;;2.67;1.30;;;;;;;17.37;66.61;99682.09;4943403;28;20275;-73
2022/09/11 03:09:38;;;;;;;2.73;1.17;;;;;;;17.36;67.01;99685.75;4942747;28;20441;-73
2022/09/11 03:12:10;;;;;;;1.65;1.55;;;;;;;17.36;66.96;99683.09;4941646;28;20277;-73
2022/09/11 03:14:37;;;;;;;2.43;2.23;;;;;;;17.38;66.92;99677.63;4947453;28;20673;-74
2022/09/11 03:17:04;;;;;;;1.42;1.30;;;;;;;17.39;66.83;99682.81;4943185;28;21022;-73
2022/09/11 03:19:30;;;;;;;2.67;1.15;;;;;;;17.41;66.92;99678.16;4940730;28;20204;-73
2022/09/11 03:21:55;;;;;;;2.83;1.60;;;;;;;17.40;67.05;99675.69;4941398;28;20226;-74
2022/09/11 03:24:21;;;;;;;1.67;1.57;;;;;;;17.42;66.99;99679.03;4944963;28;20483;-73
2022/09/11 03:26:47;;;;;;;4.57;1.40;;;;;;;17.43;67.09;99673.56;4944432;28;20208;-74
2022/09/11 03:29:15;;;;;;;1.20;1.10;;;;;;;17.45;67.03;99678.75;4943953;28;20553;-74
2022/09/11 03:31:41;;;;;;;2.20;1.50;;;;;;;17.46;67.11;99680.41;4934495;28;20461;-73
2022/09/11 03:34:07;;;;;;;1.93;1.20;;;;;;;17.46;67.04;99673.28;4938523;28;20497;-74
2022/09/11 03:36:33;;;;;;;1.42;1.10;;;;;;;17.46;67.06;99680.41;4942546;28;20209;-73
2022/09/11 03:39:00;;;;;;;2.17;1.60;;;;;;;17.45;67.14;99684.06;4947297;28;20251;-75
2022/09/11 03:41:25;;;;;;;1.90;1.57;;;;;;;17.45;67.31;99682.25;4953143;28;20685;-74
2022/09/11 03:43:51;;;;;;;1.70;1.40;;;;;;;17.48;67.27;99684.63;4938473;28;20982;-74
2022/09/11 03:46:17;;;;;;;3.40;1.33;;;;;;;17.51;67.30;99680.00;4937096;28;20477;-74
2022/09/11 03:48:45;;;;;;;2.90;1.60;;;;;;;17.50;67.46;99676.53;4939725;28;21187;-74
2022/09/11 03:51:13;;;;;;;2.03;1.40;;;;;;;17.45;67.66;99678.75;4924509;28;20635;-73
2022/09/11 03:53:43;;;;;;;6.65;1.75;;;;;;;17.38;67.71;99681.09;4934366;28;20575;-74
2022/09/11 03:56:10;;;;;;;2.50;1.77;;;;;;;17.37;67.92;99676.78;4923656;28;20275;-74
2022/09/11 03:58:42;;;;;;;2.13;1.40;;;;;;;17.37;67.98;99675.97;4936113;28;20985;-73
2022/09/11 04:01:12;;;;;;;2.53;1.50;;;;;;;17.35;67.98;99670.78;4936341;28;20232;-74
2022/09/11 04:03:40;;;;;;;2.92;1.52;;;;;;;17.35;68.08;99683.22;4956852;28;20498;-74
2022/09/11 04:06:09;;;;;;;2.50;1.85;;;;;;;17.35;68.05;99683.22;4951478;28;20310;-73
2022/09/11 04:08:38;;;;;;;1.90;1.70;;;;;;;17.34;68.27;99676.25;4947779;28;20285;-76
2022/09/11 04:11:05;;;;;;;2.58;1.40;;;;;;;17.33;68.24;99679.84;4945900;28;21249;-73
2022/09/11 04:13:35;;;;;;;2.50;1.33;;;;;;;17.31;68.23;99672.03;4963984;28;20209;-74
2022/09/11 04:16:05;;;;;;;1.92;1.30;;;;;;;17.29;68.25;99674.00;4963302;28;20475;-74
2022/09/11 04:18:35;;;;;;;8.30;2.20;;;;;;;17.23;68.36;99670.09;4960695;28;20303;-73
2022/09/11 04:21:07;;;;;;;1.98;1.30;;;;;;;17.17;68.49;99680.41;4959811;28;20706;-73
2022/09/11 04:23:33;;;;;;;1.98;1.30;;;;;;;17.11;68.71;99681.78;4942686;28;20233;-74
2022/09/11 04:25:59;;;;;;;2.00;1.35;;;;;;;17.08;68.87;99687.38;4962513;28;20222;-74
2022/09/11 04:28:29;;;;;;;4.63;1.60;;;;;;;17.03;68.92;99689.59;4945704;28;21349;-74
2022/09/11 04:30:58;;;;;;;2.22;1.42;;;;;;;17.00;69.04;99693.38;4961944;28;20482;-73
2022/09/11 04:33:23;;;;;;;3.80;1.70;;;;;;;17.02;69.20;99701.19;4958599;28;20876;-73
2022/09/11 04:35:50;;;;;;;3.25;1.83;;;;;;;16.99;69.18;99701.47;4956332;28;20294;-74
2022/09/11 04:38:17;;;;;;;3.97;1.57;;;;;;;16.98;69.20;99699.78;4932278;28;20227;-74
2022/09/11 04:40:44;;;;;;;2.65;1.70;;;;;;;16.98;69.04;99711.22;4959417;28;20220;-73
2022/09/11 04:43:10;;;;;;;2.80;1.60;;;;;;;17.00;69.12;99706.63;4954326;28;20322;-74
2022/09/11 04:45:37;;;;;;;2.90;1.40;;;;;;;17.02;69.07;99715.31;4960353;28;20695;-73
2022/09/11 04:48:04;;;;;;;2.45;1.52;;;;;;;17.02;69.03;99710.00;4948067;28;20686;-74
2022/09/11 04:50:30;;;;;;;4.00;1.37;;;;;;;17.04;69.07;99717.84;4959910;28;20572;-74
2022/09/11 04:53:13;;;;;;;1.70;1.60;;;;;;;17.06;68.92;99725.66;4958912;28;20210;-75
2022/09/11 04:55:39;;;;;;;3.30;1.30;;;;;;;17.09;68.91;99728.03;4960436;28;20231;-76
2022/09/11 04:58:05;;;;;;;3.53;1.60;;;;;;;17.10;68.56;99725.25;4946976;28;20742;-74
2022/09/11 05:00:32;;;;;;;1.67;1.57;;;;;;;17.11;68.86;99739.34;4950864;28;20257;-73
2022/09/11 05:02:57;;;;;;;2.35;1.48;;;;;;;17.12;68.74;99741.00;4955175;28;20556;-73
2022/09/11 05:05:24;;;;;;;1.87;1.77;;;;;;;17.12;69.01;99746.31;4956241;28;20228;-74
2022/09/11 05:07:49;;;;;;;1.67;1.58;;;;;;;17.12;68.91;99748.97;4957532;28;20217;-76
2022/09/11 05:10:16;;;;;;;1.50;1.25;;;;;;;17.10;69.08;99753.59;4958394;28;20352;-75
2022/09/11 05:12:42;;;;;;;2.80;1.48;;;;;;;17.08;69.15;99756.38;4971657;28;20282;-75
2022/09/11 05:15:09;;;;;;;4.70;1.50;;;;;;;17.06;69.07;99763.63;4975739;28;20226;-75
2022/09/11 05:17:35;;;;;;;5.22;1.83;;;;;;;17.03;69.23;99755.94;4956488;28;20201;-74
2022/09/11 05:20:02;;;;;;;6.97;2.10;;;;;;;17.01;69.49;99771.16;4959609;28;20610;-74
2022/09/11 05:22:29;;;;;;;2.25;1.75;;;;;;;17.00;69.54;99766.84;4952362;28;20195;-75
2022/09/11 05:24:57;;;;;;;2.65;1.80;;;;;;;17.01;69.61;99772.03;4952840;28;20234;-75
2022/09/11 05:27:23;;;;;;;2.55;1.70;;;;;;;17.04;69.58;99773.56;4951569;28;20212;-75
2022/09/11 05:29:49;;;;;;;3.40;1.90;;;;;;;17.05;69.55;99766.44;4971020;28;20261;-75
2022/09/11 05:32:14;;;;;;;1.47;1.37;;;;;;;17.07;69.56;99769.81;4955218;28;20228;-73
2022/09/11 05:34:40;;;;;;;2.77;1.40;;;;;;;17.09;69.62;99778.44;4953679;28;20708;-73
2022/09/11 05:37:08;;;;;;;4.72;2.10;;;;;;;17.07;69.80;99778.59;4973919;28;20207;-74
2022/09/11 05:39:41;;;;;;;2.20;1.60;;;;;;;17.08;69.72;99792.69;4957656;28;20207;-74
2022/09/11 05:42:09;;;;;;;3.50;2.13;;;;;;;17.09;69.73;99789.06;4953942;28;20234;-73
2022/09/11 05:44:37;;;;;;;2.70;2.00;;;;;;;17.11;69.82;99789.78;4974963;28;20225;-74
2022/09/11 05:47:04;;;;;;;3.00;1.60;;;;;;;17.13;69.57;99798.44;4955940;28;20217;-73
2022/09/11 05:49:30;;;;;;;3.67;2.63;;;;;;;17.17;69.65;99802.50;4957849;28;20259;-74
2022/09/11 05:51:57;;;;;;;1.65;1.50;;;;;;;17.17;69.67;99802.50;4958237;28;20382;-73
2022/09/11 05:54:24;;;;;;;2.35;2.13;;;;;;;17.16;69.70;99806.13;4956243;28;20321;-73
2022/09/11 05:56:51;;;;;;;2.83;1.90;;;;;;;17.18;69.47;99805.03;4954880;28;20258;-74
2022/09/11 05:59:21;;;;;;;1.98;1.88;;;;;;;17.20;69.61;99810.19;4958986;28;20237;-74
2022/09/11 06:01:49;;;;;;;1.80;1.50;;;;;;;17.20;69.27;99804.88;4958565;28;20264;-74
2022/09/11 06:04:27;;;;;;;4.28;2.30;;;;;;;17.24;69.63;99804.47;4971345;28;20576;-74
2022/09/11 06:06:55;;;;;;;1.55;1.40;;;;;;;17.27;69.55;99799.88;4956012;28;20203;-73
2022/09/11 06:09:20;;;;;;;3.03;1.90;;;;;;;17.27;69.61;99798.06;4954478;28;20211;-73
2022/09/11 06:11:46;;;;;;;2.00;1.30;;;;;;;17.26;69.35;99796.41;4958586;28;20233;-74
2022/09/11 06:14:12;;;;;;;2.90;2.43;;;;;;;17.23;69.43;99794.84;4957342;28;20222;-74
2022/09/11 06:16:39;;;;;;;3.58;1.90;;;;;;;17.26;69.32;99799.06;4971173;28;20667;-74
2022/09/11 06:19:09;;;;;;;1.67;1.30;;;;;;;17.32;69.17;99813.59;4954674;28;20626;-74
2022/09/11 06:21:35;;;;;;;1.87;1.60;;;;;;;17.38;68.86;99816.53;4957077;28;20560;-73
2022/09/11 06:24:23;;;;;;;3.63;1.60;;;;;;;17.48;68.63;99816.56;4955425;28;20262;-73
2022/09/11 06:26:49;;;;;;;3.30;1.57;;;;;;;17.55;68.53;99817.72;4951463;28;20466;-74
2022/09/11 06:29:15;;;;;;;4.70;2.10;;;;;;;17.61;67.94;99817.16;4942716;28;20299;-73
2022/09/11 06:31:46;;;;;;;3.97;2.00;;;;;;;17.67;67.89;99821.06;4974985;28;20231;-74
2022/09/11 06:34:12;;;;;;;4.90;1.80;;;;;;;17.74;67.73;99824.00;4973179;28;20488;-74
2022/09/11 06:36:38;;;;;;;1.90;1.33;;;;;;;17.79;67.92;99817.31;4957937;28;21108;-74
2022/09/11 06:39:06;;;;;;;3.50;1.17;;;;;;;17.86;67.55;99820.28;4977602;28;20466;-74
2022/09/11 06:41:33;;;;;;;2.70;1.80;;;;;;;17.88;67.56;99819.16;4959232;28;20795;-74
2022/09/11 06:44:08;;;;;;;3.80;1.87;;;;;;;17.90;67.31;99822.53;4976769;28;20490;-73
2022/09/11 06:46:34;;;;;;;2.50;1.57;;;;;;;17.93;67.28;99816.09;4975084;28;21024;-74
2022/09/11 06:49:01;;;;;;;2.87;2.30;;;;;;;17.99;66.98;99818.19;4975344;28;20488;-74
2022/09/11 06:51:27;;;;;;;2.50;1.63;;;;;;;18.06;66.97;99811.31;4974637;28;20203;-73
2022/09/11 06:53:56;;;;;;;2.40;1.40;;;;;;;18.11;66.70;99813.56;4960604;28;20493;-73
2022/09/11 06:56:23;;;;;;;2.23;1.70;;;;;;;18.18;66.40;99816.50;4959086;28;20217;-73
2022/09/11 06:58:49;;;;;;;2.40;1.80;;;;;;;18.25;66.46;99817.59;4977462;28;20461;-74
2022/09/11 07:01:17;;;;;;;2.40;2.20;;;;;;;18.29;66.18;99806.53;4975243;28;20482;-73
2022/09/11 07:03:46;;;;;;;2.10;2.00;;;;;;;18.33;65.76;99802.63;4959310;28;20244;-73
2022/09/11 07:06:13;;;;;;;4.47;3.97;;;;;;;18.37;65.60;99799.69;4957863;28;20471;-73
2022/09/11 07:08:41;;;;;;;3.30;2.50;;;;;;;18.42;65.42;99805.41;4958034;28;20470;-73
2022/09/11 07:11:08;;;;;;;3.83;3.10;;;;;;;18.48;65.29;99802.19;4956749;28;20815;-74
2022/09/11 07:13:36;;;;;;;2.53;1.80;;;;;;;18.56;64.79;99807.63;4973970;28;20207;-73
2022/09/11 07:16:06;;;;;;;1.87;1.60;;;;;;;18.61;64.73;99802.69;4961031;28;20451;-74
2022/09/11 07:18:42;;;;;;;2.73;1.43;;;;;;;18.63;64.46;99808.69;4944621;28;20719;-74
2022/09/11 07:21:24;;;;;;;3.30;1.47;;;;;;;18.71;63.97;99800.84;4972990;28;20463;-73
2022/09/11 07:23:57;;;;;;;2.30;1.80;;;;;;;18.79;63.98;99805.47;4974665;28;20486;-74
2022/09/11 07:26:26;;;;;;;1.40;1.30;;;;;;;18.86;63.49;99803.06;4957549;28;20485;-73
2022/09/11 07:28:57;;;;;;;2.23;1.70;;;;;;;18.90;63.30;99799.13;4953296;28;20470;-73
2022/09/11 07:31:29;;;;;;;2.30;1.20;;;;;;;18.87;62.98;99802.91;4956002;28;20465;-74
2022/09/11 07:33:55;;;;;;;1.87;1.53;;;;;;;18.92;62.78;99807.81;4957169;28;20699;-73
2022/09/11 07:36:27;;;;;;;4.27;2.07;;;;;;;18.97;62.85;99809.03;5168292;23;20502;-79
2022/09/11 07:38:53;;;;;;;2.13;1.93;;;;;;;19.08;62.49;99813.34;4960594;28;20954;-80
2022/09/11 07:41:21;;;;;;;2.70;1.50;;;;;;;19.36;61.88;99816.00;4977655;28;20497;-78
2022/09/11 07:43:55;;;;;;;3.43;2.17;;;;;;;19.96;60.56;99803.00;4977879;28;20463;-80
2022/09/11 07:46:23;;;;;;;2.17;1.30;;;;;;;20.72;58.51;99802.41;4979296;28;20483;-81
2022/09/11 07:48:48;;;;;;;2.20;1.37;;;;;;;21.38;56.59;99806.22;4980590;28;20566;-78
2022/09/11 07:51:17;;;;;;;3.10;1.63;;;;;;;21.93;54.92;99799.47;4990326;28;20627;-79
2022/09/11 07:53:49;;;;;;;2.83;1.47;;;;;;;22.55;53.69;99798.97;4986139;28;21069;-80
2022/09/11 07:56:22;;;;;;;1.50;1.40;;;;;;;23.13;51.65;99805.00;4970885;28;20459;-78
2022/09/11 07:58:49;;;;;;;1.97;1.20;;;;;;;23.56;50.38;99803.59;4980805;28;20403;-80
2022/09/11 08:01:17;;;;;;;2.40;1.37;;;;;;;24.14;49.11;99797.84;4974993;28;20458;-83
2022/09/11 08:03:44;;;;;;;1.43;1.20;;;;;;;24.85;47.35;99790.31;4983914;28;20441;-76
2022/09/11 08:06:13;;;;;;;1.47;1.20;;;;;;;25.60;45.79;99806.16;4977193;28;20578;-79
2022/09/11 08:08:41;;;;;;;2.70;1.40;;;;;;;26.26;43.89;99792.50;4980403;28;20896;-79
2022/09/11 08:11:13;;;;;;;2.10;1.40;;;;;;;26.83;42.83;99792.53;4977974;28;20955;-79
2022/09/11 08:13:39;;;;;;;1.90;1.20;;;;;;;27.27;41.65;99804.78;4981999;28;20736;-79
2022/09/11 08:16:05;;;;;;;1.70;1.30;;;;;;;27.71;40.41;99795.38;4980655;28;20429;-75
2022/09/11 08:18:31;;;;;;;2.40;1.23;;;;;;;28.16;39.36;99796.47;4979040;28;20489;-77
2022/09/11 08:21:07;;;;;;;1.83;1.50;;;;;;;28.66;38.18;99801.47;4975929;28;20446;-77
2022/09/11 08:23:35;;;;;;;2.57;1.17;;;;;;;28.91;37.43;99801.59;4979816;28;20441;-76
2022/09/11 08:26:05;;;;;;;2.67;1.70;;;;;;;28.95;36.35;99802.00;4978832;28;20474;-76
2022/09/11 08:28:33;;;;;;;3.73;1.50;;;;;;;29.02;36.19;99802.81;4980519;28;20474;-75
2022/09/11 08:31:00;;;;;;;2.47;1.20;;;;;;;29.08;36.32;99800.16;4977971;28;20683;-76
2022/09/11 08:33:27;;;;;;;3.03;1.30;;;;;;;29.22;35.38;99792.81;4998312;28;20481;-75
2022/09/11 08:35:53;;;;;;;2.10;1.57;;;;;;;29.21;35.38;99799.25;4983641;28;20516;-78
2022/09/11 08:38:19;;;;;;;4.60;1.50;;;;;;;29.13;35.08;99791.38;4978734;28;20539;-77
2022/09/11 08:40:45;;;;;;;1.37;1.20;;;;;;;28.85;35.29;99791.66;4964811;28;20852;-78
2022/09/11 08:43:32;;;;;;;2.50;1.20;;;;;;;28.10;35.94;99791.09;4963209;28;20205;-75
2022/09/11 08:46:08;;;;;;;2.23;1.50;;;;;;;27.83;36.90;99787.53;4963384;28;20445;-75
2022/09/11 08:48:44;;;;;;;1.50;1.20;;;;;;;27.73;36.87;99783.34;4964968;28;20440;-76
2022/09/11 08:51:16;;;;;;;1.67;1.10;;;;;;;27.66;37.03;99784.38;4983862;28;20447;-75
2022/09/11 08:53:44;;;;;;;1.63;1.30;;;;;;;27.66;37.25;99787.06;4982522;28;20722;-78
2022/09/11 08:56:21;;;;;;;1.83;1.10;;;;;;;27.38;36.98;99785.31;4967795;28;20486;-77
2022/09/11 08:58:56;;;;;;;2.77;1.40;;;;;;;26.83;38.29;99790.66;4958948;28;20488;-78
2022/09/11 09:01:29;;;;;;;2.10;1.37;;;;;;;26.24;39.18;99791.88;4981644;28;20412;-76
2022/09/11 09:04:25;;;;;;;1.33;1.13;;;;;;;25.84;39.90;99793.38;4981474;28;20917;-77
2022/09/11 09:06:51;;;;;;;2.33;1.20;;;;;;;25.59;40.51;99796.41;4976167;28;21074;-77
2022/09/11 09:09:29;;;;;;;2.50;1.50;;;;;;;25.27;41.39;99795.00;4979164;28;20453;-76
2022/09/11 09:12:04;;;;;;;1.50;1.40;;;;;;;24.99;41.79;99797.53;4963246;28;20378;-77
2022/09/11 09:14:57;;;;;;;2.63;1.50;;;;;;;24.62;42.66;99799.28;4975786;28;20800;-76
2022/09/11 09:17:28;;;;;;;1.17;1.07;;;;;;;24.61;42.94;99807.53;4953503;28;20982;-77
2022/09/11 09:20:02;;;;;;;1.43;1.03;;;;;;;24.70;42.68;99801.88;4982180;28;20477;-78
2022/09/11 09:22:47;;;;;;;2.07;1.30;;;;;;;24.82;42.45;99798.75;4962323;28;20582;-75
2022/09/11 09:25:20;;;;;;;2.40;1.80;;;;;;;24.91;42.58;99806.50;4960042;28;20482;-78
2022/09/11 09:27:48;;;;;;;1.50;1.40;;;;;;;24.85;42.35;99798.38;4968638;28;20558;-76
2022/09/11 09:30:16;;;;;;;2.07;1.70;;;;;;;24.89;41.92;99805.84;4959427;28;20524;-76
2022/09/11 09:32:57;;;;;;;1.30;1.20;;;;;;;24.69;42.04;99804.75;4958404;28;20845;-78
2022/09/11 09:35:43;;;;;;;2.27;1.40;;;;;;;24.62;42.46;99809.19;4966524;28;20445;-78
2022/09/11 09:38:20;;;;;;;2.60;1.57;;;;;;;24.78;42.43;99803.63;4996590;28;20462;-77
2022/09/11 09:41:09;;;;;;;2.10;1.20;;;;;;;24.97;42.29;99804.94;4981977;28;20481;-76
2022/09/11 09:44:03;;;;;;;3.30;1.30;;;;;;;25.22;41.83;99799.28;4980186;28;20438;-80
2022/09/11 09:46:40;;;;;;;1.33;1.23;;;;;;;25.43;41.33;99801.19;4982193;28;20800;-76
2022/09/11 09:49:09;;;;;;;2.77;1.27;;;;;;;25.54;41.20;99804.22;4983317;28;20474;-77
2022/09/11 09:51:35;;;;;;;1.40;1.30;;;;;;;25.74;40.77;99801.75;4982025;28;20447;-78
2022/09/11 09:54:01;;;;;;;1.43;1.30;;;;;;;25.94;40.05;99795.75;4984838;28;20455;-78
2022/09/11 09:56:30;;;;;;;2.00;1.20;;;;;;;26.02;39.29;99799.16;4981660;28;20459;-79
2022/09/11 09:59:02;;;;;;;1.10;1.00;;;;;;;26.11;39.09;99783.69;4982005;28;20588;-76
2022/09/11 10:01:50;;;;;;;2.53;1.23;;;;;;;26.18;39.12;99778.38;4981295;28;20445;-78
2022/09/11 10:04:26;;;;;;;2.10;1.40;;;;;;;26.31;39.30;99777.66;4982347;28;20472;-76
2022/09/11 10:07:04;;;;;;;1.33;1.07;;;;;;;26.32;38.86;99782.81;4980357;28;20801;-77
2022/09/11 10:09:30;;;;;;;2.23;1.27;;;;;;;26.41;39.32;99773.59;4982420;28;20910;-80
2022/09/11 10:12:01;;;;;;;2.73;1.30;;;;;;;26.24;39.34;99778.41;4982863;28;20858;-78
2022/09/11 10:14:31;;;;;;;2.40;1.30;;;;;;;26.01;39.57;99784.03;4980133;28;20461;-77
2022/09/11 10:16:58;;;;;;;5.93;2.47;;;;;;;25.55;39.97;99780.88;4982345;28;20449;-77
2022/09/11 10:19:34;;;;;;;1.70;1.40;;;;;;;25.10;41.18;99780.09;4983162;28;20511;-78
2022/09/11 10:22:24;;;;;;;3.27;1.70;;;;;;;24.79;42.15;99783.84;4980569;28;20482;-79
2022/09/11 10:25:09;;;;;;;2.23;1.27;;;;;;;24.58;41.98;99783.72;4972895;28;20478;-77
2022/09/11 10:28:22;;;;;;;1.23;1.13;;;;;;;24.26;42.59;99778.47;4980524;28;20485;-78
2022/09/11 10:30:51;;;;;;;2.13;1.40;;;;;;;23.86;43.27;99782.31;4923391;29;20435;-78
2022/09/11 10:33:25;;;;;;;2.87;1.37;;;;;;;23.40;44.32;99777.72;4924049;29;20985;-77
2022/09/11 10:35:54;;;;;;;1.70;1.33;;;;;;;23.14;44.92;99788.78;4952821;28;20461;-77
2022/09/11 10:38:22;;;;;;;2.00;1.23;;;;;;;23.03;45.04;99786.44;4972886;28;20450;-78
2022/09/11 10:41:13;;;;;;;1.33;1.20;;;;;;;22.95;45.64;99786.44;4976261;28;20527;-76
2022/09/11 10:43:41;;;;;;;1.33;1.20;;;;;;;23.02;45.40;99776.75;4983408;28;20441;-78
2022/09/11 10:46:23;;;;;;;2.00;1.50;;;;;;;23.33;45.10;99767.88;4985519;28;20458;-76
2022/09/11 10:48:54;;;;;;;2.73;1.27;;;;;;;23.64;44.61;99770.56;4985208;28;20429;-76
2022/09/11 10:51:23;;;;;;;3.67;1.47;;;;;;;23.77;44.25;99768.13;4977559;28;20417;-79
2022/09/11 10:53:57;;;;;;;1.30;1.20;;;;;;;23.88;44.07;99766.06;4976223;28;20434;-79
2022/09/11 10:56:24;;;;;;;1.43;1.30;;;;;;;24.11;43.66;99763.34;4972632;28;20462;-79
2022/09/11 10:58:56;;;;;;;2.80;1.53;;;;;;;24.15;42.79;99765.47;4972463;28;20512;-76
2022/09/11 11:01:21;;;;;;;2.10;1.60;;;;;;;24.19;42.56;99766.78;4976102;28;20413;-77
2022/09/11 11:03:47;;;;;;;3.13;1.13;;;;;;;24.27;42.43;99769.38;4971788;28;21117;-78
2022/09/11 11:06:27;;;;;;;2.30;1.20;;;;;;;24.39;42.44;99766.28;4978552;28;20209;-78
2022/09/11 11:09:12;;;;;;;3.53;1.20;;;;;;;24.48;42.32;99765.19;4978356;28;20402;-76
2022/09/11 11:12:20;;;;;;;1.30;1.20;;;;;;;24.54;42.26;99763.63;4944282;28;20961;-77
2022/09/11 11:15:13;;;;;;;2.00;1.37;;;;;;;24.63;41.69;99762.53;4976848;28;21007;-79
2022/09/11 11:17:52;;;;;;;2.23;1.30;;;;;;;24.67;41.53;99759.25;4973168;28;20451;-77
2022/09/11 11:20:32;;;;;;;3.67;1.63;;;;;;;24.66;41.12;99754.09;4966718;28;20453;-76
2022/09/11 11:23:17;;;;;;;1.53;1.20;;;;;;;24.56;41.20;99757.03;4967066;28;20449;-78
2022/09/11 11:25:49;;;;;;;1.80;1.37;;;;;;;24.47;41.24;99747.44;4968570;28;20565;-79
2022/09/11 11:28:30;;;;;;;1.73;1.20;;;;;;;24.38;41.67;99748.47;4957793;28;20451;-75
2022/09/11 11:31:01;;;;;;;2.87;1.30;;;;;;;24.32;42.09;99747.38;4965932;28;20447;-75
2022/09/11 11:33:42;;;;;;;1.20;1.10;;;;;;;24.40;42.09;99741.09;4965633;28;20470;-77
2022/09/11 11:36:23;;;;;;;2.40;1.30;;;;;;;24.46;41.84;99741.19;4971736;28;20463;-78
2022/09/11 11:39:00;;;;;;;2.80;1.50;;;;;;;24.42;41.33;99734.50;4974645;28;20547;-77
2022/09/11 11:41:29;;;;;;;1.27;1.17;;;;;;;24.48;41.40;99731.09;4975985;28;20447;-77
2022/09/11 11:43:57;;;;;;;2.43;1.40;;;;;;;24.56;41.40;99729.38;4977288;28;20798;-77
2022/09/11 11:46:29;;;;;;;2.37;1.37;;;;;;;24.66;41.18;99730.75;4978084;28;20894;-75
2022/09/11 11:49:04;;;;;;;2.33;1.20;;;;;;;24.74;41.12;99724.44;4977648;28;20442;-76
2022/09/11 11:51:53;;;;;;;1.27;1.10;;;;;;;24.77;40.95;99729.44;4976885;28;20829;-77
2022/09/11 11:54:24;;;;;;;3.70;1.40;;;;;;;24.72;40.82;99727.31;4970976;28;20648;-75